Flight Track Log - Related Links

Times and Time Zones

All times are in EDT time to prevent confusion due to time zone crossing. See the SWA311 flight status page for this flight to view local times or setup timezone preferences in your user account.

Time Position Orientation Groundspeed Altitude Reporting Facility
EDT Latitude Longitude Course Direction KTS MPH feet Rate Location/Type
Sun 03:24:28 PM 29.6544 -95.2675 20° North 168 193 400  Level Houston Center
Sun 03:25:11 PM 29.6867 -95.2539 20° North 186 214 1,800 2,308 Climbing Houston Center
Sun 03:26:12 PM 29.7403 -95.2883 331° Northwest 235 270 4,400 2,238 Climbing Houston Center
Sun 03:27:17 PM 29.7961 -95.3150 337° Northwest 234 269 6,500 2,439 Climbing Houston Center
Sun 03:28:15 PM 29.8836 -95.3386 347° North 287 330 9,400 2,419 Climbing Houston Center
Sun 03:29:21 PM 29.9697 -95.3103 16° North 326 375 11,500 2,531 Climbing Houston Center
Sun 03:30:23 PM 30.0492 -95.2428 36° Northeast 352 405 14,800 2,952 Climbing Houston Center
Sun 03:31:25 PM 30.1403 -95.1836 29° Northeast 371 427 17,600 2,661 Climbing Houston Center
Sun 03:32:27 PM 30.2328 -95.1169 32° Northeast 388 447 20,300 2,419 Climbing Houston Center
Sun 03:33:29 PM 30.3300 -95.0497 31° Northeast 403 464 22,600 2,371 Climbing Houston Center
Sun 03:34:31 PM 30.4417 -94.9700 32° Northeast 425 489 25,200 2,160 Climbing Houston Center
Sun 03:35:34 PM 30.5453 -94.8975 31° Northeast 433 498 27,100 1,728 Climbing Houston Center
Sun 03:36:36 PM 30.6494 -94.8178 33° Northeast 446 513 28,800 1,790 Climbing Houston Center
Sun 03:37:38 PM 30.7789 -94.7186 33° Northeast 468 539 30,800 1,935 Climbing Houston Center
Sun 03:38:40 PM 30.8853 -94.6353 34° Northeast 463 533 32,800 1,841 Climbing Houston Center
Sun 03:39:06 PM 30.9253 -94.6044 33° Northeast 466 536 33,500 1,674 Climbing Fort Worth Center
Sun 03:40:06 PM 31.0300 -94.5214 34° Northeast 447 514 35,200 1,300 Climbing Fort Worth Center
Sun 03:41:06 PM 31.1489 -94.4328 33° Northeast 447 514 36,100 900 Climbing Fort Worth Center
Sun 03:42:06 PM 31.2472 -94.3542 34° Northeast 453 521 37,000 1,050 Climbing Fort Worth Center
Sun 03:43:06 PM 31.3558 -94.2706 33° Northeast 460 529 38,200 1,000 Climbing Fort Worth Center
Sun 03:44:06 PM 31.4622 -94.1864 34° Northeast 460 529 39,000 400 Climbing Fort Worth Center
Sun 03:45:06 PM 31.5747 -94.0997 33° Northeast 465 535 39,000  Level Fort Worth Center
Sun 03:46:06 PM 31.6914 -94.0075 34° Northeast 465 535 39,000  Level Fort Worth Center
Sun 03:47:07 PM 31.7975 -93.9231 34° Northeast 465 535 39,000  Level Fort Worth Center
Sun 03:48:06 PM 31.9058 -93.8381 34° Northeast 460 529 39,000  Level Fort Worth Center
Sun 03:49:06 PM 32.0039 -93.7583 35° Northeast 460 529 39,000  Level Fort Worth Center
Sun 03:50:06 PM 32.1181 -93.6706 33° Northeast 455 524 39,000  Level Fort Worth Center
Sun 03:51:06 PM 32.2217 -93.5778 37° Northeast 460 529 39,000  Level Fort Worth Center
Sun 03:52:06 PM 32.3300 -93.4944 33° Northeast 460 529 39,000  Level Fort Worth Center
Sun 03:53:07 PM 32.4358 -93.4086 34° Northeast 460 529 39,000  Level Fort Worth Center
Sun 03:54:07 PM 32.5414 -93.3228 34° Northeast 460 529 39,000  Level Fort Worth Center
Sun 03:56:07 PM 32.7569 -93.1475 34° Northeast 460 529 39,000  Level Fort Worth Center
Sun 03:58:10 PM 32.9703 -92.9794 33° Northeast 479 551 39,000  Level Memphis Center
Sun 03:59:10 PM 33.0806 -92.8911 34° Northeast 473 544 39,000  Level Memphis Center
Sun 04:00:10 PM 33.1867 -92.8022 35° Northeast 473 544 39,000  Level Memphis Center
Sun 04:01:10 PM 33.2867 -92.7008 40° Northeast 473 544 39,000  Level Memphis Center
Sun 04:02:10 PM 33.3747 -92.5711 51° Northeast 480 552 39,000  Level Memphis Center
Sun 04:03:10 PM 33.4583 -92.4414 52° Northeast 486 559 39,000  Level Memphis Center
Sun 04:04:10 PM 33.5419 -92.3086 53° Northeast 492 566 39,000  Level Memphis Center
Sun 04:05:10 PM 33.6272 -92.1833 51° Northeast 492 566 39,000  Level Memphis Center
Sun 04:06:10 PM 33.7125 -92.0553 51° Northeast 487 560 39,000  Level Memphis Center
Sun 04:07:10 PM 33.7978 -91.9244 52° Northeast 481 554 39,000  Level Memphis Center
Sun 04:08:10 PM 33.8786 -91.7958 53° Northeast 481 554 39,000  Level Memphis Center
Sun 04:09:10 PM 33.9592 -91.6669 53° Northeast 476 548 39,000  Level Memphis Center
Sun 04:10:10 PM 34.0442 -91.5328 53° Northeast 486 559 39,000  Level Memphis Center
Sun 04:11:10 PM 34.1286 -91.4061 51° Northeast 486 559 39,000  Level Memphis Center
Sun 04:12:10 PM 34.2111 -91.2764 52° Northeast 486 559 39,000  Level Memphis Center
Sun 04:13:10 PM 34.2956 -91.1417 53° Northeast 486 559 39,000  Level Memphis Center
Sun 04:14:10 PM 34.3861 -90.9989 52° Northeast 486 559 39,000  Level Memphis Center
Sun 04:15:10 PM 34.4700 -90.8661 53° Northeast 491 565 39,000  Level Memphis Center
Sun 04:16:10 PM 34.5542 -90.7278 54° Northeast 486 559 39,000  Level Memphis Center
Sun 04:17:10 PM 34.6358 -90.5969 53° Northeast 486 559 39,000  Level Memphis Center
Sun 04:18:10 PM 34.7172 -90.4658 53° Northeast 486 559 39,000  Level Memphis Center
Sun 04:19:10 PM 34.8008 -90.3294 53° Northeast 492 566 39,000  Level Memphis Center
Sun 04:20:10 PM 34.8842 -90.1950 53° Northeast 492 566 39,000  Level Memphis Center
Sun 04:21:10 PM 34.9611 -90.0758 52° Northeast 492 566 39,000  Level Memphis Center
Sun 04:22:10 PM 35.0442 -89.9411 53° Northeast 492 566 39,000  Level Memphis Center
Sun 04:23:10 PM 35.1228 -89.8011 56° Northeast 497 572 39,000  Level Memphis Center
Sun 04:24:10 PM 35.2097 -89.6456 56° Northeast 497 572 39,000  Level Memphis Center
Sun 04:25:10 PM 35.2839 -89.5100 56° Northeast 497 572 39,000  Level Memphis Center
Sun 04:26:10 PM 35.3622 -89.3692 56° Northeast 495 570 39,000  Level Memphis Center
Sun 04:27:10 PM 35.4381 -89.2333 56° Northeast 489 563 39,000  Level Memphis Center
Sun 04:28:10 PM 35.5142 -89.0969 56° Northeast 479 551 39,000  Level Memphis Center
Sun 04:29:10 PM 35.5878 -88.9631 56° Northeast 479 551 39,000  Level Memphis Center
Sun 04:30:10 PM 35.6633 -88.8264 56° Northeast 479 551 39,000  Level Memphis Center
Sun 04:31:10 PM 35.7364 -88.6869 57° Northeast 479 551 39,000  Level Memphis Center
Sun 04:32:10 PM 35.8117 -88.5497 56° Northeast 479 551 39,000  Level Memphis Center
Sun 04:33:10 PM 35.8889 -88.4097 56° Northeast 484 557 39,000  Level Memphis Center
Sun 04:34:10 PM 35.9658 -88.2719 55° Northeast 489 563 39,000  Level Memphis Center
Sun 04:35:10 PM 36.0406 -88.1314 57° Northeast 489 563 39,000  Level Memphis Center
Sun 04:36:10 PM 36.1092 -88.0061 56° Northeast 483 556 39,000  Level Memphis Center
Sun 04:37:10 PM 36.1856 -87.8653 56° Northeast 494 568 39,000  Level Memphis Center
Sun 04:38:10 PM 36.2678 -87.7083 57° Northeast 494 568 39,000  Level Memphis Center
Sun 04:39:10 PM 36.3439 -87.5692 56° Northeast 487 560 39,000  Level Memphis Center
Sun 04:40:10 PM 36.4178 -87.4272 57° Northeast 492 566 39,000  Level Memphis Center
Sun 04:41:10 PM 36.4936 -87.2853 56° Northeast 492 566 39,000  Level Memphis Center
Sun 04:42:10 PM 36.5692 -87.1428 57° Northeast 492 566 39,000  Level Memphis Center
Sun 04:43:10 PM 36.6425 -86.9950 58° Northeast 492 566 39,000  Level Memphis Center
Sun 04:44:10 PM 36.7033 -86.8606 61° Northeast 492 566 39,000  Level Memphis Center
Sun 04:45:10 PM 36.7700 -86.7128 61° Northeast 492 566 39,000  Level Memphis Center
Sun 04:46:10 PM 36.8383 -86.5617 60° Northeast 492 566 39,000  Level Memphis Center
Sun 04:47:10 PM 36.9044 -86.4108 61° Northeast 492 566 39,000  Level Memphis Center
Sun 04:48:46 PM 37.0219 -86.1528 60° Northeast 502 578 39,000  Level Indianapolis Center
Sun 04:49:48 PM 37.0906 -85.9992 61° Northeast 499 574 39,000  Level Indianapolis Center
Sun 04:50:50 PM 37.1578 -85.8469 61° Northeast 496 571 39,000  Level Indianapolis Center
Sun 04:51:52 PM 37.2247 -85.6925 61° Northeast 499 574 39,000  Level Indianapolis Center
Sun 04:52:53 PM 37.2931 -85.5400 61° Northeast 497 572 39,000  Level Indianapolis Center
Sun 04:53:55 PM 37.3586 -85.3889 61° Northeast 494 568 39,000  Level Indianapolis Center
Sun 04:54:57 PM 37.4256 -85.2342 61° Northeast 501 577 39,000  Level Indianapolis Center
Sun 04:55:59 PM 37.5047 -85.0547 61° Northeast 501 577 39,000  Level Indianapolis Center
Sun 04:57:01 PM 37.5714 -84.8997 61° Northeast 500 575 39,000  Level Indianapolis Center
Sun 04:58:03 PM 37.6364 -84.7481 62° Northeast 493 567 39,000  Level Indianapolis Center
Sun 04:59:05 PM 37.7022 -84.5953 61° Northeast 493 567 39,000  Level Indianapolis Center
Sun 05:00:07 PM 37.7683 -84.4411 61° Northeast 495 570 39,000  Level Indianapolis Center
Sun 05:01:09 PM 37.8325 -84.2878 62° Northeast 490 564 39,000  Level Indianapolis Center
Sun 05:02:11 PM 37.9225 -84.1203 56° Northeast 493 567 39,000  Level Indianapolis Center
Sun 05:03:13 PM 38.0103 -83.9914 49° Northeast 484 557 39,000  Level Indianapolis Center
Sun 05:04:15 PM 38.0989 -83.8581 50° Northeast 489 563 39,000 -194 Level Indianapolis Center
Sun 05:05:17 PM 38.1869 -83.7206 51° Northeast 495 570 38,600 -677 Descending Indianapolis Center
Sun 05:06:19 PM 38.2761 -83.5861 50° Northeast 494 568 37,600 -919 Descending Indianapolis Center
Sun 05:07:21 PM 38.3633 -83.4528 50° Northeast 490 564 36,700 -968 Descending Indianapolis Center
Sun 05:08:23 PM 38.4633 -83.3006 50° Northeast 480 552 35,600 -1,016 Descending Indianapolis Center
Sun 05:09:25 PM 38.5522 -83.1633 50° Northeast 496 571 34,600 -976 Descending Indianapolis Center
Sun 05:10:26 PM 38.6389 -83.0272 51° Northeast 493 567 33,600 -1,024 Descending Indianapolis Center
Sun 05:11:28 PM 38.7233 -82.8967 50° Northeast 471 542 32,500 -1,016 Descending Indianapolis Center
Sun 05:12:30 PM 38.8047 -82.7703 50° Northeast 461 531 31,500 -968 Descending Indianapolis Center
Sun 05:13:32 PM 38.8853 -82.6447 50° Northeast 454 522 30,500 -968 Descending Indianapolis Center
Sun 05:14:34 PM 38.9644 -82.5203 51° Northeast 450 518 29,500 -823 Descending Indianapolis Center
Sun 05:15:36 PM 39.0425 -82.3956 51° Northeast 447 514 28,800 -780 Descending Indianapolis Center
Sun 05:16:37 PM 39.1281 -82.2603 51° Northeast 476 548 27,900 -976 Descending Indianapolis Center
Sun 05:17:39 PM 39.2158 -82.1225 51° Northeast 490 564 26,800 -1,113 Descending Indianapolis Center
Sun 05:18:41 PM 39.3147 -81.9633 51° Northeast 473 544 25,600 -1,065 Descending Indianapolis Center
Sun 05:19:43 PM 39.3956 -81.8333 51° Northeast 463 533 24,600 -976 Descending Indianapolis Center
Sun 05:20:44 PM 39.4767 -81.7047 51° Northeast 460 529 23,600 -976 Descending Indianapolis Center
Sun 05:21:46 PM 39.5544 -81.5769 52° Northeast 451 519 22,600 -1,016 Descending Indianapolis Center
Sun 05:22:48 PM 39.6303 -81.4547 51° Northeast 437 503 21,500 -1,154 Descending Indianapolis Center
Sun 05:23:04 PM 39.6578 -81.4081 53° Northeast 448 516 21,100 -395 Descending Cleveland Center
Sun 05:24:04 PM 39.7314 -81.2903 51° Northeast 433 498 21,000 -950 Descending Cleveland Center
Sun 05:25:04 PM 39.8031 -81.1747 51° Northeast 428 493 19,200 -1,650 Descending Cleveland Center
Sun 05:26:04 PM 39.8703 -81.0672 51° Northeast 406 467 17,700 -2,050 Descending Cleveland Center
Sun 05:27:04 PM 39.9353 -80.9539 53° Northeast 395 455 15,100 -2,550 Descending Cleveland Center
Sun 05:28:04 PM 40.0003 -80.8458 52° Northeast 389 448 12,600 -2,300 Descending Cleveland Center
Sun 05:29:04 PM 40.0711 -80.7514 46° Northeast 379 436 10,500 -1,300 Descending Cleveland Center
Sun 05:30:04 PM 40.1358 -80.6700 44° Northeast 344 396 10,000 -750 Descending Cleveland Center
Sun 05:31:04 PM 40.2069 -80.6267 25° Northeast 291 335 9,000 -1,200 Descending Cleveland Center
Sun 05:32:04 PM 40.2756 -80.5914 21° North 269 310 7,600 -1,400 Descending Cleveland Center
Sun 05:33:04 PM 40.3464 -80.5558 21° North 264 304 6,200 -1,300 Descending Cleveland Center
Sun 05:34:04 PM 40.4153 -80.5231 20° North 264 304 5,000 -1,000 Descending Cleveland Center
Sun 05:35:04 PM 40.4569 -80.4794 39° Northeast 247 284 4,200 -700 Descending Cleveland Center
Sun 05:36:04 PM 40.4944 -80.4083 55° Northeast 214 246 3,600 -800 Descending Cleveland Center
Sun 05:37:04 PM 40.5047 -80.3564 75° East 164 189 2,600 -1,000 Descending Cleveland Center
Sun 05:39:00 PM 40.4915 -80.2329 90° East  Level Estimated
Sun 05:46:00 PM 40.4915 -80.2329 90° East  Level Estimated
Sun 05:47:00 PM 40.4915 -80.2329 90° East  Level Estimated

Login

Don't have an account? Register now (free) for customized features, flight alerts, and more!